Tamworth, Australia
Current Conditions -  °F | °C
As of 3:30 PM on Saturday 22 Nov 2014 (Local Time) from YSTW Reporting Station
Clear Clear  
Wind Chill: 102°   Ceiling: Unl
Heat Index: 102°   Visibility: 6mi
Dew Point: 34°   Wind: 14mph
Humidity: 9%   Direction: 310°NW
Pressure: 29.83"   Gusts: NA
Location:  31.09°S, 150.93°E
Report Text: YSTW 220430Z AUTO 31012KT 9999 // NCD 39/01 Q1010
Loading
Personal Weather Stations






























Interactive Weather Map New forecast layout! Learn more

10-Day Weather Forecast

Advertisements
Track Severe Weather on mobile